createdAt,value
2018-11-23T00:01:51.084Z,79.23
2018-11-23T00:06:53.230Z,82.43
2018-11-23T00:11:55.331Z,78.80
2018-11-23T00:16:57.444Z,89.23
2018-11-23T00:21:59.620Z,73.53
2018-11-23T00:27:01.733Z,89.03
2018-11-23T00:32:03.975Z,74.63
2018-11-23T00:37:06.096Z,73.93
2018-11-23T00:42:08.198Z,90.90
2018-11-23T00:47:10.320Z,85.60
2018-11-23T00:52:12.445Z,93.77
2018-11-23T00:57:14.525Z,95.10
2018-11-23T01:02:16.697Z,81.57
2018-11-23T01:07:18.829Z,96.03
2018-11-23T01:12:20.976Z,118.13
2018-11-23T01:17:23.234Z,94.63
2018-11-23T01:22:25.551Z,89.40
2018-11-23T01:27:27.670Z,100.53
2018-11-23T01:32:29.792Z,96.10
2018-11-23T01:37:31.902Z,94.63
2018-11-23T01:42:34.022Z,102.27
2018-11-23T01:47:36.169Z,102.50
2018-11-23T01:52:38.311Z,90.60
2018-11-23T01:57:40.745Z,107.80
2018-11-23T02:02:43.340Z,104.93
2018-11-23T02:07:45.449Z,95.10
2018-11-23T02:12:47.571Z,88.00
2018-11-23T02:17:50.099Z,92.83
2018-11-23T02:22:52.259Z,101.60
2018-11-23T02:27:54.355Z,90.53
2018-11-23T02:32:56.475Z,101.43
2018-11-23T02:37:58.523Z,96.27
2018-11-23T02:43:00.648Z,104.47
2018-11-23T02:48:02.803Z,87.90
2018-11-23T02:53:04.922Z,86.57
2018-11-23T02:58:07.006Z,106.57
2018-11-23T03:03:09.140Z,91.53
2018-11-23T03:08:11.227Z,93.47
2018-11-23T03:13:13.328Z,91.77
2018-11-23T03:18:15.448Z,94.40
2018-11-23T03:23:17.563Z,83.43
2018-11-23T03:28:19.710Z,91.30
2018-11-23T03:33:21.824Z,91.30
2018-11-23T03:38:23.926Z,85.03
2018-11-23T03:43:26.023Z,82.63
2018-11-23T03:48:28.126Z,85.20
2018-11-23T03:53:30.266Z,85.33
2018-11-23T03:58:32.352Z,96.27
2018-11-23T04:03:34.455Z,89.50
2018-11-23T04:08:36.576Z,98.33
2018-11-23T04:13:38.659Z,88.07
2018-11-23T04:18:40.736Z,90.57
2018-11-23T04:23:42.898Z,91.73
2018-11-23T04:28:45.001Z,93.47
2018-11-23T04:33:47.416Z,87.20
2018-11-23T04:38:49.534Z,95.53
2018-11-23T04:43:51.611Z,94.77
2018-11-23T04:48:53.726Z,107.83
2018-11-23T04:53:55.826Z,108.63
2018-11-23T04:58:57.963Z,91.33
2018-11-23T05:04:00.105Z,96.03
2018-11-23T05:09:02.270Z,104.53
2018-11-23T05:14:04.651Z,85.60
2018-11-23T05:19:06.817Z,102.37
2018-11-23T05:24:08.918Z,105.93
2018-11-23T05:29:11.056Z,103.00
2018-11-23T05:34:13.175Z,105.07
2018-11-23T05:39:15.293Z,85.00
2018-11-23T05:44:17.400Z,92.83
2018-11-23T05:49:19.500Z,98.37
2018-11-23T05:54:21.614Z,93.57
2018-11-23T05:59:23.736Z,84.67
2018-11-23T06:04:25.839Z,95.23
2018-11-23T06:09:27.934Z,110.93
2018-11-23T06:14:30.063Z,101.53
2018-11-23T06:19:32.175Z,91.37
2018-11-23T06:24:34.514Z,92.87
2018-11-23T06:29:36.613Z,92.43
2018-11-23T06:34:38.752Z,88.43
2018-11-23T06:39:40.867Z,97.13
2018-11-23T06:44:42.990Z,95.03
2018-11-23T06:49:45.098Z,91.53
2018-11-23T06:54:47.219Z,91.17
2018-11-23T06:59:49.362Z,101.83
2018-11-23T07:04:51.469Z,99.23
2018-11-23T07:09:53.597Z,89.10
2018-11-23T07:14:55.711Z,92.30
2018-11-23T07:19:57.851Z,88.67
2018-11-23T07:24:59.988Z,95.93
2018-11-23T07:30:02.373Z,119.80
2018-11-23T07:35:04.829Z,98.33
2018-11-23T07:40:19.516Z,86.20
2018-11-23T07:45:21.685Z,93.87
2018-11-23T07:50:23.868Z,87.90
2018-11-23T07:55:26.028Z,88.10
2018-11-23T08:00:28.372Z,88.30
2018-11-23T08:05:30.506Z,72.53
2018-11-23T08:10:32.226Z,77.73
2018-11-23T08:15:34.391Z,90.07
2018-11-23T08:20:36.531Z,83.07
2018-11-23T08:25:38.686Z,75.97
2018-11-23T08:30:40.806Z,95.03
2018-11-23T08:35:42.984Z,83.37
2018-11-23T08:40:45.142Z,83.03
2018-11-23T08:45:47.322Z,83.10
2018-11-23T08:50:49.473Z,78.87
2018-11-23T08:55:51.619Z,69.87
2018-11-23T09:00:53.782Z,76.27
2018-11-23T09:05:55.919Z,71.63
2018-11-23T09:10:58.069Z,63.47
2018-11-23T09:16:00.210Z,69.00
2018-11-23T09:21:02.384Z,92.73
2018-11-23T09:26:04.598Z,73.17
2018-11-23T09:31:06.735Z,72.67
2018-11-23T09:36:08.868Z,59.43
2018-11-23T09:41:11.038Z,58.90
2018-11-23T09:46:13.222Z,65.60
2018-11-23T09:51:15.384Z,62.23
2018-11-23T09:56:17.542Z,67.20
2018-11-23T10:01:19.689Z,57.30
2018-11-23T10:06:21.807Z,65.33
2018-11-23T10:11:23.971Z,57.70
2018-11-23T10:16:26.113Z,56.07
2018-11-23T10:21:28.507Z,55.73
2018-11-23T10:26:30.667Z,68.40
2018-11-23T10:31:32.814Z,57.93
2018-11-23T10:36:35.287Z,63.40
2018-11-23T10:41:37.419Z,56.00
2018-11-23T10:51:41.690Z,59.13
2018-11-23T10:56:43.808Z,60.80
2018-11-23T11:01:51.664Z,63.63
2018-11-23T11:06:54.880Z,61.03
2018-11-23T11:11:57.036Z,69.00
2018-11-23T11:16:59.200Z,63.23
2018-11-23T11:22:01.330Z,68.40
2018-11-23T11:27:03.736Z,66.50
2018-11-23T11:32:05.912Z,63.87
2018-11-23T11:37:08.091Z,54.10
2018-11-23T11:42:10.199Z,67.27
2018-11-23T11:47:12.320Z,64.67
2018-11-23T11:52:14.454Z,65.30
2018-11-23T11:57:16.743Z,67.47
2018-11-23T12:02:18.905Z,62.17
2018-11-23T12:07:21.056Z,60.60
2018-11-23T12:12:23.232Z,66.80
2018-11-23T12:17:25.370Z,63.40
2018-11-23T12:22:27.479Z,57.07
2018-11-23T12:27:29.672Z,64.50
2018-11-23T12:32:31.817Z,60.40
2018-11-23T12:37:33.945Z,52.13
2018-11-23T12:42:36.119Z,57.63
2018-11-23T12:47:38.402Z,59.67
2018-11-23T12:52:40.532Z,58.60
2018-11-23T12:57:42.866Z,56.70
2018-11-23T13:02:46.208Z,56.70
2018-11-23T13:07:48.864Z,62.20
2018-11-23T13:12:52.584Z,56.07
2018-11-23T13:17:55.294Z,59.67
2018-11-23T13:22:57.497Z,57.83
2018-11-23T13:27:59.870Z,59.80
2018-11-23T13:33:02.103Z,48.27
2018-11-23T13:38:04.515Z,54.00
2018-11-23T13:43:06.708Z,45.73
2018-11-23T13:48:08.855Z,54.37
2018-11-23T13:53:10.995Z,59.90
2018-11-23T13:58:13.145Z,59.73
2018-11-23T14:03:15.341Z,55.57
2018-11-23T14:08:17.534Z,63.00
2018-11-23T14:13:19.704Z,54.33
2018-11-23T14:18:21.854Z,58.83
2018-11-23T14:23:24.034Z,53.93
2018-11-23T14:28:26.225Z,63.03
2018-11-23T14:33:28.366Z,58.10
2018-11-23T14:38:30.524Z,58.30
2018-11-23T14:43:32.708Z,57.40
2018-11-23T14:48:34.875Z,53.30
2018-11-23T14:53:37.077Z,63.90
2018-11-23T14:58:39.245Z,59.00
2018-11-23T15:03:41.463Z,58.28
2018-11-23T15:08:43.613Z,58.10
2018-11-23T15:13:45.766Z,66.13
2018-11-23T15:18:47.961Z,56.90
2018-11-23T15:23:50.153Z,66.20
2018-11-23T15:28:52.355Z,57.07
2018-11-23T15:33:54.524Z,70.17
2018-11-23T15:38:56.684Z,64.27
2018-11-23T15:43:58.857Z,70.37
2018-11-23T15:49:01.107Z,79.67
2018-11-23T15:54:03.359Z,63.80
2018-11-23T15:59:05.542Z,67.90
2018-11-23T16:04:07.752Z,61.70
2018-11-23T16:09:11.843Z,64.60
2018-11-23T16:14:13.989Z,61.07
2018-11-23T16:19:16.136Z,73.73
2018-11-23T16:24:18.298Z,85.13
2018-11-23T16:29:20.526Z,77.63
2018-11-23T16:34:22.670Z,89.13
2018-11-23T16:39:24.869Z,88.20
2018-11-23T16:44:27.068Z,81.97
2018-11-23T16:49:29.316Z,77.87
2018-11-23T16:54:31.501Z,71.30
2018-11-23T16:59:33.678Z,75.23
2018-11-23T17:04:35.888Z,72.53
2018-11-23T17:09:38.069Z,80.37
2018-11-23T17:14:40.284Z,85.23
2018-11-23T17:19:43.337Z,101.10
2018-11-23T17:24:45.605Z,76.03
2018-11-23T17:29:47.823Z,82.90
2018-11-23T17:34:50.005Z,87.23
2018-11-23T17:39:52.173Z,84.10
2018-11-23T17:44:54.422Z,84.80
2018-11-23T17:49:57.024Z,92.23
2018-11-23T17:54:59.190Z,104.60
2018-11-23T18:00:01.380Z,117.53
2018-11-23T18:05:07.522Z,89.47
2018-11-23T18:10:08.944Z,98.20
2018-11-23T18:15:14.384Z,103.70
2018-11-23T18:20:17.758Z,101.30
2018-11-23T18:25:21.341Z,99.37
2018-11-23T18:30:23.571Z,116.13
2018-11-23T18:35:25.819Z,103.03
2018-11-23T18:40:28.057Z,91.43
2018-11-23T18:45:30.265Z,110.77
2018-11-23T18:50:32.469Z,114.23
2018-11-23T18:55:34.660Z,116.27
2018-11-23T19:00:36.897Z,110.20
2018-11-23T19:05:39.107Z,109.90
2018-11-23T19:10:41.293Z,117.00
2018-11-23T19:15:43.541Z,110.10
2018-11-23T19:20:45.754Z,120.07
2018-11-23T19:25:47.961Z,131.07
2018-11-23T19:30:50.216Z,134.03
2018-11-23T19:35:52.389Z,124.47
2018-11-23T19:40:55.171Z,118.27
2018-11-23T19:45:57.455Z,150.67
2018-11-23T19:51:00.170Z,132.43
2018-11-23T19:56:02.796Z,104.13
2018-11-23T20:01:05.830Z,142.33
2018-11-23T20:06:08.096Z,149.03
2018-11-23T20:11:10.620Z,146.70
2018-11-23T20:16:13.295Z,144.00
2018-11-23T20:21:15.637Z,137.20
2018-11-23T20:26:18.320Z,146.00
2018-11-23T20:31:22.695Z,142.60
2018-11-23T20:36:25.688Z,130.50
2018-11-23T20:41:29.111Z,144.90
2018-11-23T20:46:32.501Z,159.03
2018-11-23T20:51:37.332Z,178.73
2018-11-23T20:56:39.979Z,159.20
2018-11-23T21:01:42.954Z,152.90
2018-11-23T21:06:45.543Z,159.43
2018-11-23T21:11:47.796Z,151.10
2018-11-23T21:16:50.068Z,171.77
2018-11-23T21:21:52.307Z,147.97
2018-11-23T21:26:54.504Z,170.23
2018-11-23T21:31:56.788Z,174.33
2018-11-23T21:36:58.984Z,168.03
2018-11-23T21:42:01.157Z,159.47
2018-11-23T21:47:03.347Z,166.17
2018-11-23T21:52:05.609Z,160.23
2018-11-23T21:57:07.849Z,143.57
2018-11-23T22:02:10.023Z,144.57
2018-11-23T22:07:12.212Z,137.90
2018-11-23T22:12:14.361Z,158.93
2018-11-23T22:17:16.816Z,137.73
2018-11-23T22:22:18.997Z,125.07
2018-11-23T22:27:21.154Z,134.77
2018-11-23T22:32:23.368Z,126.73
2018-11-23T22:37:25.554Z,145.47
2018-11-23T22:42:27.744Z,126.17
2018-11-23T22:47:29.943Z,137.60
2018-11-23T22:52:32.146Z,136.97
2018-11-23T22:57:34.347Z,134.60
2018-11-23T23:02:36.518Z,163.07
2018-11-23T23:07:38.669Z,119.03
2018-11-23T23:12:40.902Z,131.83
2018-11-23T23:17:43.260Z,131.87
2018-11-23T23:22:45.431Z,113.73
2018-11-23T23:27:47.601Z,111.67
2018-11-23T23:32:49.880Z,120.40
2018-11-23T23:37:52.073Z,129.43
2018-11-23T23:42:54.240Z,142.33
2018-11-23T23:47:56.455Z,152.57
2018-11-23T23:52:58.676Z,118.17
2018-11-23T23:58:01.453Z,128.60
